• Join FlightAware (Why Join?)
  • Login
  • US Flag 
02:37PM EDT


 

Airport Tracker/Info


-or-


 

Live Flight TrackerFlight Track Log ✈ DAL6067 ✈ 14-May-2013 ✈ KBGR - KLGA

Flight Track Log - Related Links

Times and Time Zones

All times are in EDT time to prevent confusion due to time zone crossing. See the DAL6067 flight status page for this flight to view local times or setup timezone preferences in your user account.

Time Position Orientation Groundspeed Altitude Reporting Facility
EDT Latitude Longitude Course Direction KTS MPH feet Rate Location/Type
06:07AM 44.7844 -68.9769 241° Southwest 249 287 5,500  Level Boston Center
06:08AM 44.7051 -69.1791 241° Southwest  Level FlightAware Approximate
06:08AM 44.7514 -69.0608 241° Southwest 249 287 8,700  Level Boston Center
06:09AM 44.6544 -69.3057 241° Southwest  Level FlightAware Approximate
06:09AM 44.7186 -69.1533 244° Southwest 254 292 11,100  Level Boston Center
06:10AM 44.6100 -69.4368 245° Southwest  Level FlightAware Approximate
06:10AM 44.6761 -69.2667 242° Southwest 272 313 12,800  Level Boston Center
06:11AM 44.5636 -69.5663 241° Southwest  Level FlightAware Approximate
06:11AM 44.6353 -69.3767 242° Southwest 304 350 15,000  Level Boston Center
06:12AM 44.5131 -69.6927 241° Southwest  Level FlightAware Approximate
06:12AM 44.5944 -69.4869 243° Southwest 321 369 17,000  Level Boston Center
06:13AM 44.5494 -69.6028 241° Southwest 326 375 19,500 2,520 Climbing Boston Center
06:14AM 44.5103 -69.7064 242° Southwest 321 369 22,100 2,400 Climbing Boston Center
06:15AM 44.4731 -69.8072 243° Southwest 315 362 24,300 2,160 Climbing Boston Center
06:16AM 44.4314 -69.9108 241° Southwest 310 357 26,500 1,860 Climbing Boston Center
06:17AM 44.3958 -69.9967 240° Southwest 305 351 28,100 1,500 Climbing Boston Center
06:18AM 44.3561 -70.0939 240° Southwest 300 345 29,500 900 Climbing Boston Center
06:19AM 44.3125 -70.2031 241° Southwest 307 353 30,000 240 Climbing Boston Center
06:20AM 44.2628 -70.3239 240° Southwest 338 389 30,000  Level Boston Center
06:21AM 44.2108 -70.4531 241° Southwest 365 420 30,000  Level Boston Center
06:22AM 44.1567 -70.5822 240° Southwest 383 441 30,000  Level Boston Center
06:23AM 44.1025 -70.7083 239° Southwest 388 447 30,000  Level Boston Center
06:24AM 44.0481 -70.8428 241° Southwest 388 447 30,000  Level Boston Center
06:25AM 43.9914 -70.9742 239° Southwest 393 452 30,000  Level Boston Center
06:26AM 43.9369 -71.1053 240° Southwest 398 458 30,000  Level Boston Center
06:27AM 43.8800 -71.2389 239° Southwest 403 464 30,000  Level Boston Center
06:28AM 43.8250 -71.3725 240° Southwest 409 471 30,000  Level Boston Center
06:29AM 43.7617 -71.5144 238° Southwest 409 471 30,000  Level Boston Center
06:30AM 43.7044 -71.6531 240° Southwest 409 471 30,000  Level Boston Center
06:31AM 43.6489 -71.7858 240° Southwest 409 471 30,000  Level Boston Center
06:32AM 43.5933 -71.9183 240° Southwest 409 471 30,000  Level Boston Center
06:33AM 43.5356 -72.0533 239° Southwest 409 471 30,000  Level Boston Center
06:34AM 43.4775 -72.1825 238° Southwest 409 471 30,000  Level Boston Center
06:35AM 43.4194 -72.3144 239° Southwest 409 471 30,000  Level Boston Center
06:36AM 43.3611 -72.4486 239° Southwest 409 471 30,000  Level Boston Center
06:37AM 43.3028 -72.5828 239° Southwest 409 471 30,000  Level Boston Center
06:38AM 43.2442 -72.7136 238° Southwest 409 471 30,000  Level Boston Center
06:39AM 43.1833 -72.8472 238° Southwest 409 471 30,000  Level Boston Center
06:40AM 43.1286 -72.9636 237° Southwest 409 471 30,000 -300 Level Boston Center
06:41AM 43.0717 -73.0994 240° Southwest 409 471 29,500 -780 Descending Boston Center
06:42AM 43.0103 -73.2294 237° Southwest 414 476 28,500 -1,080 Descending Boston Center
06:43AM 42.9447 -73.3703 238° Southwest 409 471 27,400 -1,020 Descending Boston Center
06:44AM 42.8853 -73.4997 238° Southwest 409 471 26,500 -1,020 Descending Boston Center
06:45AM 42.8383 -73.6150 241° Southwest 409 471 25,400 -1,680 Descending Boston Center
06:46AM 42.7703 -73.7439 234° Southwest 404 465 23,200 -1,740 Descending Boston Center
06:47AM 42.6572 -73.7839 195° South 396 456 22,000 -600 Descending Boston Center
06:48AM 42.5531 -73.7647 172° South 377 434 22,000 -960 Level Boston Center
06:49AM 42.4344 -73.7453 173° South 397 457 20,100 -1,920 Descending Boston Center
06:50AM 42.3058 -73.7117 169° South 421 484 18,200 -1,080 Descending Boston Center
06:51AM 42.2058 -73.7014 176° South 422 486 18,000 -120 Descending Boston Center
06:52AM 42.0828 -73.7128 184° South 407 468 18,000  Level Boston Center
06:53AM 41.9742 -73.7247 185° South 402 463 18,000  Level Boston Center
06:54AM 41.8614 -73.7419 186° South 407 468 18,000 -600 Level Boston Center
06:55AM 41.7572 -73.7536 185° South 397 457 16,800 -1,740 Descending Boston Center
06:56AM 41.6611 -73.7628 184° South 359 413 14,600 -1,920 Descending Boston Center
06:58AM 41.5000 -73.7833 185° South 313 360 11,500 -1,620 Descending New York TRACON
06:59AM 41.4167 -73.7833 180° South 299 344 10,100 -1,260 Descending New York TRACON
07:00AM 41.3333 -73.7833 180° South 292 336 9,000 -600 Descending New York TRACON
07:01AM 41.2667 -73.7333 151° Southeast 290 334 9,000 -60 Level New York TRACON
07:02AM 41.2000 -73.6667 143° Southeast 294 338 8,900 -720 Descending New York TRACON
07:03AM 41.1500 -73.6000 135° Southeast 283 326 7,600 -1,560 Descending New York TRACON
07:04AM 41.0833 -73.5500 151° Southeast 281 323 6,000 -1,680 Descending New York TRACON
07:05AM 41.0167 -73.5667 191° South 263 303 4,400 -1,080 Descending New York TRACON
07:06AM 40.9667 -73.6000 207° Southwest 261 300 4,000 -240 Descending New York TRACON
07:07AM 40.8833 -73.6167 189° South 261 300 4,000  Level New York TRACON
07:08AM 40.8333 -73.6667 217° Southwest 258 297 4,000  Level New York TRACON
07:09AM 40.8000 -73.7500 242° Southwest 248 285 4,000  Level New York TRACON
07:09AM 40.7833 -73.8167 252° West 243 280 4,000  Level New York TRACON
07:10AM 40.7667 -73.9000 255° West 248 285 4,000  Level New York TRACON
07:11AM 40.7500 -73.9833 255° West 190 219 4,000 -360 Level New York TRACON
07:12AM 40.7333 -74.0333 246° West 190 219 3,400 -540 Descending New York TRACON
07:13AM 40.6833 -74.0167 166° South 215 247 3,000 -480 Descending New York TRACON
07:14AM 40.7000 -73.9500 72° East 178 205 2,500 -540 Descending New York TRACON